sensor_id;sensor_type;location;lat;lon;timestamp;temperature;humidity
48206;DHT22;33995;48.202;16.260;2023-08-30T00:00:16;15.60;99.90
48206;DHT22;33995;48.202;16.260;2023-08-30T00:02:53;15.60;99.90
48206;DHT22;33995;48.202;16.260;2023-08-30T00:05:24;15.50;99.90
48206;DHT22;33995;48.202;16.260;2023-08-30T00:07:58;15.50;99.90
48206;DHT22;33995;48.202;16.260;2023-08-30T00:10:31;15.50;99.90
48206;DHT22;33995;48.202;16.260;2023-08-30T00:13:01;15.60;99.90
48206;DHT22;33995;48.202;16.260;2023-08-30T00:15:32;15.60;99.90
48206;DHT22;33995;48.202;16.260;2023-08-30T00:18:02;15.60;99.90
48206;DHT22;33995;48.202;16.260;2023-08-30T00:20:32;15.60;99.90
48206;DHT22;33995;48.202;16.260;2023-08-30T00:23:01;15.60;99.90
48206;DHT22;33995;48.202;16.260;2023-08-30T00:25:30;15.60;99.90
48206;DHT22;33995;48.202;16.260;2023-08-30T00:27:58;15.60;99.90
48206;DHT22;33995;48.202;16.260;2023-08-30T00:30:26;15.60;99.90
48206;DHT22;33995;48.202;16.260;2023-08-30T00:32:57;15.60;99.90
48206;DHT22;33995;48.202;16.260;2023-08-30T00:35:25;15.60;99.90
48206;DHT22;33995;48.202;16.260;2023-08-30T00:37:52;15.60;99.90
48206;DHT22;33995;48.202;16.260;2023-08-30T00:40:38;15.70;99.90
48206;DHT22;33995;48.202;16.260;2023-08-30T00:43:09;15.70;99.90
48206;DHT22;33995;48.202;16.260;2023-08-30T00:45:40;15.70;99.90
48206;DHT22;33995;48.202;16.260;2023-08-30T00:48:11;15.60;99.90
48206;DHT22;33995;48.202;16.260;2023-08-30T00:50:50;15.70;99.90
48206;DHT22;33995;48.202;16.260;2023-08-30T00:53:28;15.60;99.90
48206;DHT22;33995;48.202;16.260;2023-08-30T00:56:01;15.70;99.90
48206;DHT22;33995;48.202;16.260;2023-08-30T00:58:33;15.70;99.90
48206;DHT22;33995;48.202;16.260;2023-08-30T01:01:01;15.70;99.90
48206;DHT22;33995;48.202;16.260;2023-08-30T01:03:32;15.70;99.90
48206;DHT22;33995;48.202;16.260;2023-08-30T01:05:59;15.70;99.90
48206;DHT22;33995;48.202;16.260;2023-08-30T01:08:27;15.70;99.90
48206;DHT22;33995;48.202;16.260;2023-08-30T01:13:31;15.70;99.90
48206;DHT22;33995;48.202;16.260;2023-08-30T01:16:06;15.70;99.90
48206;DHT22;33995;48.202;16.260;2023-08-30T01:18:39;15.70;99.90
48206;DHT22;33995;48.202;16.260;2023-08-30T01:21:14;15.70;99.90
48206;DHT22;33995;48.202;16.260;2023-08-30T01:23:52;15.70;99.90
48206;DHT22;33995;48.202;16.260;2023-08-30T01:27:06;15.70;99.90
48206;DHT22;33995;48.202;16.260;2023-08-30T01:29:38;15.70;99.90
48206;DHT22;33995;48.202;16.260;2023-08-30T01:32:09;15.70;99.90
48206;DHT22;33995;48.202;16.260;2023-08-30T01:34:39;15.70;99.90
48206;DHT22;33995;48.202;16.260;2023-08-30T01:37:09;15.70;99.90
48206;DHT22;33995;48.202;16.260;2023-08-30T01:39:41;15.70;99.90
48206;DHT22;33995;48.202;16.260;2023-08-30T01:42:12;15.70;99.90
48206;DHT22;33995;48.202;16.260;2023-08-30T01:44:44;15.70;99.90
48206;DHT22;33995;48.202;16.260;2023-08-30T01:47:13;15.70;99.90
48206;DHT22;33995;48.202;16.260;2023-08-30T01:49:43;15.70;99.90
48206;DHT22;33995;48.202;16.260;2023-08-30T01:52:16;15.70;99.90
48206;DHT22;33995;48.202;16.260;2023-08-30T01:54:45;15.80;99.90
48206;DHT22;33995;48.202;16.260;2023-08-30T01:57:13;15.80;99.90
48206;DHT22;33995;48.202;16.260;2023-08-30T01:59:41;15.80;99.90
48206;DHT22;33995;48.202;16.260;2023-08-30T02:02:12;15.80;99.90
48206;DHT22;33995;48.202;16.260;2023-08-30T02:04:43;15.80;99.90
48206;DHT22;33995;48.202;16.260;2023-08-30T02:07:25;15.80;99.90
48206;DHT22;33995;48.202;16.260;2023-08-30T02:10:02;15.80;99.90
48206;DHT22;33995;48.202;16.260;2023-08-30T02:12:37;15.70;99.90
48206;DHT22;33995;48.202;16.260;2023-08-30T02:15:07;15.80;99.90
48206;DHT22;33995;48.202;16.260;2023-08-30T02:17:36;15.80;99.90
48206;DHT22;33995;48.202;16.260;2023-08-30T02:20:09;15.70;99.90
48206;DHT22;33995;48.202;16.260;2023-08-30T02:22:40;15.70;99.90
48206;DHT22;33995;48.202;16.260;2023-08-30T02:25:11;15.70;99.90
48206;DHT22;33995;48.202;16.260;2023-08-30T02:27:42;15.70;99.90
48206;DHT22;33995;48.202;16.260;2023-08-30T02:30:13;15.60;99.90
48206;DHT22;33995;48.202;16.260;2023-08-30T02:32:40;15.70;99.90
48206;DHT22;33995;48.202;16.260;2023-08-30T02:35:08;15.60;99.90
48206;DHT22;33995;48.202;16.260;2023-08-30T02:37:37;15.60;99.90
48206;DHT22;33995;48.202;16.260;2023-08-30T02:40:06;15.60;99.90
48206;DHT22;33995;48.202;16.260;2023-08-30T02:42:34;15.50;99.90
48206;DHT22;33995;48.202;16.260;2023-08-30T02:45:02;15.40;99.90
48206;DHT22;33995;48.202;16.260;2023-08-30T02:47:32;15.40;99.90
48206;DHT22;33995;48.202;16.260;2023-08-30T02:50:01;15.30;99.90
48206;DHT22;33995;48.202;16.260;2023-08-30T02:52:28;15.40;99.90
48206;DHT22;33995;48.202;16.260;2023-08-30T02:54:58;15.40;99.90
48206;DHT22;33995;48.202;16.260;2023-08-30T02:57:29;15.40;99.90
48206;DHT22;33995;48.202;16.260;2023-08-30T03:00:00;15.40;99.90
48206;DHT22;33995;48.202;16.260;2023-08-30T03:02:29;15.40;99.90
48206;DHT22;33995;48.202;16.260;2023-08-30T03:05:00;15.30;99.90
48206;DHT22;33995;48.202;16.260;2023-08-30T03:07:29;15.20;99.90
48206;DHT22;33995;48.202;16.260;2023-08-30T03:09:58;15.30;99.90
48206;DHT22;33995;48.202;16.260;2023-08-30T03:12:25;15.30;99.90
48206;DHT22;33995;48.202;16.260;2023-08-30T03:14:56;15.30;99.90
48206;DHT22;33995;48.202;16.260;2023-08-30T03:17:26;15.20;99.90
48206;DHT22;33995;48.202;16.260;2023-08-30T03:19:59;15.20;99.90
48206;DHT22;33995;48.202;16.260;2023-08-30T03:22:30;15.10;99.90
48206;DHT22;33995;48.202;16.260;2023-08-30T03:25:02;15.20;99.90
48206;DHT22;33995;48.202;16.260;2023-08-30T03:27:34;15.10;99.90
48206;DHT22;33995;48.202;16.260;2023-08-30T03:30:07;15.10;99.90
48206;DHT22;33995;48.202;16.260;2023-08-30T03:32:37;15.10;99.90
48206;DHT22;33995;48.202;16.260;2023-08-30T03:35:06;15.10;99.90
48206;DHT22;33995;48.202;16.260;2023-08-30T03:37:41;15.10;99.90
48206;DHT22;33995;48.202;16.260;2023-08-30T03:40:10;15.00;99.90
48206;DHT22;33995;48.202;16.260;2023-08-30T03:42:40;15.00;99.90
48206;DHT22;33995;48.202;16.260;2023-08-30T03:45:10;15.00;99.90
48206;DHT22;33995;48.202;16.260;2023-08-30T03:47:42;14.90;99.90
48206;DHT22;33995;48.202;16.260;2023-08-30T03:50:11;15.00;99.90
48206;DHT22;33995;48.202;16.260;2023-08-30T03:52:41;14.90;99.90
48206;DHT22;33995;48.202;16.260;2023-08-30T03:55:09;14.90;99.90
48206;DHT22;33995;48.202;16.260;2023-08-30T03:57:37;14.90;99.90
48206;DHT22;33995;48.202;16.260;2023-08-30T04:00:07;14.90;99.90
48206;DHT22;33995;48.202;16.260;2023-08-30T04:02:45;14.90;99.90
48206;DHT22;33995;48.202;16.260;2023-08-30T04:05:14;14.90;99.90
48206;DHT22;33995;48.202;16.260;2023-08-30T04:07:41;14.90;99.90
48206;DHT22;33995;48.202;16.260;2023-08-30T04:10:10;14.90;99.90
48206;DHT22;33995;48.202;16.260;2023-08-30T04:12:41;14.90;99.90
48206;DHT22;33995;48.202;16.260;2023-08-30T04:15:12;14.90;99.90
48206;DHT22;33995;48.202;16.260;2023-08-30T04:17:39;14.90;99.90
48206;DHT22;33995;48.202;16.260;2023-08-30T04:20:21;14.90;99.90
48206;DHT22;33995;48.202;16.260;2023-08-30T04:22:50;15.00;99.90
48206;DHT22;33995;48.202;16.260;2023-08-30T04:25:19;14.90;99.90
48206;DHT22;33995;48.202;16.260;2023-08-30T04:27:47;14.90;99.90
48206;DHT22;33995;48.202;16.260;2023-08-30T04:30:16;14.90;99.90
48206;DHT22;33995;48.202;16.260;2023-08-30T04:32:48;14.90;99.90
48206;DHT22;33995;48.202;16.260;2023-08-30T04:35:16;14.90;99.90
48206;DHT22;33995;48.202;16.260;2023-08-30T04:37:45;15.00;99.90
48206;DHT22;33995;48.202;16.260;2023-08-30T04:40:14;15.00;99.90
48206;DHT22;33995;48.202;16.260;2023-08-30T04:42:49;15.00;99.90
48206;DHT22;33995;48.202;16.260;2023-08-30T04:45:16;15.00;99.90
48206;DHT22;33995;48.202;16.260;2023-08-30T04:47:44;15.00;99.90
48206;DHT22;33995;48.202;16.260;2023-08-30T04:50:12;15.00;99.90
48206;DHT22;33995;48.202;16.260;2023-08-30T04:52:43;15.00;99.90
48206;DHT22;33995;48.202;16.260;2023-08-30T04:55:13;15.00;99.90
48206;DHT22;33995;48.202;16.260;2023-08-30T04:57:42;15.00;99.90
48206;DHT22;33995;48.202;16.260;2023-08-30T05:00:16;15.10;99.90
48206;DHT22;33995;48.202;16.260;2023-08-30T05:02:45;15.10;99.90
48206;DHT22;33995;48.202;16.260;2023-08-30T05:05:16;15.10;99.90
48206;DHT22;33995;48.202;16.260;2023-08-30T05:07:45;15.10;99.90
48206;DHT22;33995;48.202;16.260;2023-08-30T05:10:16;15.10;99.90
48206;DHT22;33995;48.202;16.260;2023-08-30T05:12:45;15.10;99.90
48206;DHT22;33995;48.202;16.260;2023-08-30T05:15:19;15.10;99.90
48206;DHT22;33995;48.202;16.260;2023-08-30T05:17:48;15.10;99.90
48206;DHT22;33995;48.202;16.260;2023-08-30T05:20:15;15.20;99.90
48206;DHT22;33995;48.202;16.260;2023-08-30T05:22:43;15.20;99.90
48206;DHT22;33995;48.202;16.260;2023-08-30T05:25:11;15.10;99.90
48206;DHT22;33995;48.202;16.260;2023-08-30T05:27:42;15.10;99.90
48206;DHT22;33995;48.202;16.260;2023-08-30T05:30:12;15.10;99.90
48206;DHT22;33995;48.202;16.260;2023-08-30T05:32:47;15.20;99.90
48206;DHT22;33995;48.202;16.260;2023-08-30T05:35:37;15.20;99.90
48206;DHT22;33995;48.202;16.260;2023-08-30T05:38:20;15.30;99.90
48206;DHT22;33995;48.202;16.260;2023-08-30T05:41:28;15.30;99.90
48206;DHT22;33995;48.202;16.260;2023-08-30T05:43:56;15.30;99.90
48206;DHT22;33995;48.202;16.260;2023-08-30T05:46:27;15.30;99.90
48206;DHT22;33995;48.202;16.260;2023-08-30T05:48:55;15.40;99.90
48206;DHT22;33995;48.202;16.260;2023-08-30T05:51:25;15.40;99.90
48206;DHT22;33995;48.202;16.260;2023-08-30T05:53:52;15.40;99.90
48206;DHT22;33995;48.202;16.260;2023-08-30T05:56:23;15.50;99.90
48206;DHT22;33995;48.202;16.260;2023-08-30T05:58:53;15.50;99.90
48206;DHT22;33995;48.202;16.260;2023-08-30T06:01:21;15.50;99.90
48206;DHT22;33995;48.202;16.260;2023-08-30T06:03:49;15.50;99.90
48206;DHT22;33995;48.202;16.260;2023-08-30T06:06:18;15.50;99.90
48206;DHT22;33995;48.202;16.260;2023-08-30T06:08:50;15.60;99.90
48206;DHT22;33995;48.202;16.260;2023-08-30T06:11:19;15.60;99.90
48206;DHT22;33995;48.202;16.260;2023-08-30T06:13:46;15.60;99.90
48206;DHT22;33995;48.202;16.260;2023-08-30T06:16:21;15.70;99.90
48206;DHT22;33995;48.202;16.260;2023-08-30T06:18:48;15.70;99.90
48206;DHT22;33995;48.202;16.260;2023-08-30T06:21:17;15.70;99.90
48206;DHT22;33995;48.202;16.260;2023-08-30T06:23:44;15.70;99.90
48206;DHT22;33995;48.202;16.260;2023-08-30T06:26:12;15.70;99.90
48206;DHT22;33995;48.202;16.260;2023-08-30T06:28:40;15.70;99.90
48206;DHT22;33995;48.202;16.260;2023-08-30T06:31:25;15.80;99.90
48206;DHT22;33995;48.202;16.260;2023-08-30T06:33:56;15.80;99.90
48206;DHT22;33995;48.202;16.260;2023-08-30T06:36:28;15.80;99.90
48206;DHT22;33995;48.202;16.260;2023-08-30T06:38:59;15.80;99.90
48206;DHT22;33995;48.202;16.260;2023-08-30T06:41:29;15.90;99.90
48206;DHT22;33995;48.202;16.260;2023-08-30T06:43:58;15.90;99.90
48206;DHT22;33995;48.202;16.260;2023-08-30T06:46:27;16.00;99.90
48206;DHT22;33995;48.202;16.260;2023-08-30T06:48:56;16.00;99.90
48206;DHT22;33995;48.202;16.260;2023-08-30T06:51:28;16.10;99.90
48206;DHT22;33995;48.202;16.260;2023-08-30T06:53:55;16.10;99.90
48206;DHT22;33995;48.202;16.260;2023-08-30T06:56:30;16.20;99.90
48206;DHT22;33995;48.202;16.260;2023-08-30T06:59:01;16.20;99.90
48206;DHT22;33995;48.202;16.260;2023-08-30T07:01:30;16.30;99.90
48206;DHT22;33995;48.202;16.260;2023-08-30T07:04:02;16.30;99.90
48206;DHT22;33995;48.202;16.260;2023-08-30T07:06:32;16.30;99.90
48206;DHT22;33995;48.202;16.260;2023-08-30T07:09:01;16.40;99.90
48206;DHT22;33995;48.202;16.260;2023-08-30T07:11:33;16.40;99.90
48206;DHT22;33995;48.202;16.260;2023-08-30T07:14:00;16.50;99.90
48206;DHT22;33995;48.202;16.260;2023-08-30T07:16:29;16.60;99.90
48206;DHT22;33995;48.202;16.260;2023-08-30T07:18:58;16.80;99.90
48206;DHT22;33995;48.202;16.260;2023-08-30T07:21:26;16.90;99.90
48206;DHT22;33995;48.202;16.260;2023-08-30T07:23:57;17.00;99.90
48206;DHT22;33995;48.202;16.260;2023-08-30T07:26:25;17.10;99.90
48206;DHT22;33995;48.202;16.260;2023-08-30T07:28:53;17.10;99.90
48206;DHT22;33995;48.202;16.260;2023-08-30T07:31:22;17.10;99.90
48206;DHT22;33995;48.202;16.260;2023-08-30T07:33:54;17.20;99.90
48206;DHT22;33995;48.202;16.260;2023-08-30T07:36:23;17.20;99.90
48206;DHT22;33995;48.202;16.260;2023-08-30T07:39:12;17.30;99.90
48206;DHT22;33995;48.202;16.260;2023-08-30T07:41:40;17.30;99.90
48206;DHT22;33995;48.202;16.260;2023-08-30T07:44:10;17.40;99.90
48206;DHT22;33995;48.202;16.260;2023-08-30T07:46:37;17.50;99.90
48206;DHT22;33995;48.202;16.260;2023-08-30T07:49:05;17.50;99.90
48206;DHT22;33995;48.202;16.260;2023-08-30T07:51:35;17.60;99.90
48206;DHT22;33995;48.202;16.260;2023-08-30T07:54:03;17.70;99.90
48206;DHT22;33995;48.202;16.260;2023-08-30T07:56:31;17.90;99.90
48206;DHT22;33995;48.202;16.260;2023-08-30T07:59:00;18.10;99.90
48206;DHT22;33995;48.202;16.260;2023-08-30T08:01:27;18.10;99.90
48206;DHT22;33995;48.202;16.260;2023-08-30T08:04:00;18.10;99.90
48206;DHT22;33995;48.202;16.260;2023-08-30T08:06:35;18.00;99.90
48206;DHT22;33995;48.202;16.260;2023-08-30T08:09:04;18.00;99.90
48206;DHT22;33995;48.202;16.260;2023-08-30T08:11:32;18.00;99.90
48206;DHT22;33995;48.202;16.260;2023-08-30T08:14:01;18.00;99.90
48206;DHT22;33995;48.202;16.260;2023-08-30T08:16:29;18.10;99.90
48206;DHT22;33995;48.202;16.260;2023-08-30T08:18:57;18.20;99.90
48206;DHT22;33995;48.202;16.260;2023-08-30T08:21:27;18.20;99.90
48206;DHT22;33995;48.202;16.260;2023-08-30T08:23:56;18.30;99.90
48206;DHT22;33995;48.202;16.260;2023-08-30T08:26:25;18.30;99.90
48206;DHT22;33995;48.202;16.260;2023-08-30T08:28:54;18.20;99.90
48206;DHT22;33995;48.202;16.260;2023-08-30T08:31:23;18.30;99.90
48206;DHT22;33995;48.202;16.260;2023-08-30T08:34:05;18.30;99.90
48206;DHT22;33995;48.202;16.260;2023-08-30T08:36:32;18.20;99.90
48206;DHT22;33995;48.202;16.260;2023-08-30T08:39:02;18.10;99.90
48206;DHT22;33995;48.202;16.260;2023-08-30T08:41:39;18.10;99.90
48206;DHT22;33995;48.202;16.260;2023-08-30T08:44:07;18.10;99.90
48206;DHT22;33995;48.202;16.260;2023-08-30T08:46:36;18.20;99.90
48206;DHT22;33995;48.202;16.260;2023-08-30T08:49:12;18.20;99.90
48206;DHT22;33995;48.202;16.260;2023-08-30T08:51:41;18.20;99.90
48206;DHT22;33995;48.202;16.260;2023-08-30T08:54:12;18.00;99.90
48206;DHT22;33995;48.202;16.260;2023-08-30T08:56:43;18.10;99.90
48206;DHT22;33995;48.202;16.260;2023-08-30T08:59:10;18.20;99.90
48206;DHT22;33995;48.202;16.260;2023-08-30T09:01:41;18.20;99.90
48206;DHT22;33995;48.202;16.260;2023-08-30T09:04:10;18.30;99.90
48206;DHT22;33995;48.202;16.260;2023-08-30T09:06:38;18.40;99.90
48206;DHT22;33995;48.202;16.260;2023-08-30T09:09:12;18.50;99.90
48206;DHT22;33995;48.202;16.260;2023-08-30T09:11:47;18.60;99.90
48206;DHT22;33995;48.202;16.260;2023-08-30T09:14:19;18.70;99.90
48206;DHT22;33995;48.202;16.260;2023-08-30T09:17:01;19.00;99.90
48206;DHT22;33995;48.202;16.260;2023-08-30T09:19:29;19.20;99.90
48206;DHT22;33995;48.202;16.260;2023-08-30T09:21:58;19.30;99.90
48206;DHT22;33995;48.202;16.260;2023-08-30T09:24:40;19.20;99.90
48206;DHT22;33995;48.202;16.260;2023-08-30T09:27:10;19.20;99.90
48206;DHT22;33995;48.202;16.260;2023-08-30T09:29:39;19.30;99.90
48206;DHT22;33995;48.202;16.260;2023-08-30T09:32:20;19.30;99.90
48206;DHT22;33995;48.202;16.260;2023-08-30T09:34:49;19.40;99.90
48206;DHT22;33995;48.202;16.260;2023-08-30T09:37:22;19.40;99.90
48206;DHT22;33995;48.202;16.260;2023-08-30T09:39:55;19.30;99.90
48206;DHT22;33995;48.202;16.260;2023-08-30T09:42:25;19.10;99.90
48206;DHT22;33995;48.202;16.260;2023-08-30T09:44:52;19.00;99.90
48206;DHT22;33995;48.202;16.260;2023-08-30T09:47:19;19.00;99.90
48206;DHT22;33995;48.202;16.260;2023-08-30T09:49:47;18.90;99.90
48206;DHT22;33995;48.202;16.260;2023-08-30T09:52:19;18.80;99.90
48206;DHT22;33995;48.202;16.260;2023-08-30T09:54:51;18.70;99.90
48206;DHT22;33995;48.202;16.260;2023-08-30T09:57:20;18.60;99.90
48206;DHT22;33995;48.202;16.260;2023-08-30T09:59:48;18.50;99.90
48206;DHT22;33995;48.202;16.260;2023-08-30T10:02:16;18.50;99.90
48206;DHT22;33995;48.202;16.260;2023-08-30T10:04:45;18.30;99.90
48206;DHT22;33995;48.202;16.260;2023-08-30T10:07:15;18.30;99.90
48206;DHT22;33995;48.202;16.260;2023-08-30T10:09:42;18.20;99.90
48206;DHT22;33995;48.202;16.260;2023-08-30T10:12:33;18.30;99.90
48206;DHT22;33995;48.202;16.260;2023-08-30T10:15:00;18.30;99.90
48206;DHT22;33995;48.202;16.260;2023-08-30T10:17:35;18.30;99.90
48206;DHT22;33995;48.202;16.260;2023-08-30T10:20:06;18.20;99.90
48206;DHT22;33995;48.202;16.260;2023-08-30T10:22:37;18.10;99.90
48206;DHT22;33995;48.202;16.260;2023-08-30T10:25:11;18.00;99.90
48206;DHT22;33995;48.202;16.260;2023-08-30T10:27:47;17.90;99.90
48206;DHT22;33995;48.202;16.260;2023-08-30T10:30:17;17.80;99.90
48206;DHT22;33995;48.202;16.260;2023-08-30T10:32:46;17.80;99.90
48206;DHT22;33995;48.202;16.260;2023-08-30T10:35:15;17.80;99.90
48206;DHT22;33995;48.202;16.260;2023-08-30T10:37:53;17.70;99.90
48206;DHT22;33995;48.202;16.260;2023-08-30T10:40:20;17.70;99.90
48206;DHT22;33995;48.202;16.260;2023-08-30T10:43:01;17.70;99.90
48206;DHT22;33995;48.202;16.260;2023-08-30T10:45:30;17.70;99.90
48206;DHT22;33995;48.202;16.260;2023-08-30T10:47:59;17.70;99.90
48206;DHT22;33995;48.202;16.260;2023-08-30T10:50:32;17.70;99.90
48206;DHT22;33995;48.202;16.260;2023-08-30T10:53:00;17.80;99.90
48206;DHT22;33995;48.202;16.260;2023-08-30T10:55:32;18.10;99.90
48206;DHT22;33995;48.202;16.260;2023-08-30T10:58:02;18.30;99.90
48206;DHT22;33995;48.202;16.260;2023-08-30T11:00:33;18.30;99.90
48206;DHT22;33995;48.202;16.260;2023-08-30T11:03:10;18.10;99.90
48206;DHT22;33995;48.202;16.260;2023-08-30T11:05:40;18.20;99.90
48206;DHT22;33995;48.202;16.260;2023-08-30T11:08:10;18.10;99.90
48206;DHT22;33995;48.202;16.260;2023-08-30T11:10:38;18.10;99.90
48206;DHT22;33995;48.202;16.260;2023-08-30T11:13:10;18.30;99.90
48206;DHT22;33995;48.202;16.260;2023-08-30T11:15:37;18.60;99.90
48206;DHT22;33995;48.202;16.260;2023-08-30T11:18:07;18.80;99.90
48206;DHT22;33995;48.202;16.260;2023-08-30T11:20:35;18.80;99.90
48206;DHT22;33995;48.202;16.260;2023-08-30T11:23:03;18.90;99.90
48206;DHT22;33995;48.202;16.260;2023-08-30T11:25:32;18.90;99.90
48206;DHT22;33995;48.202;16.260;2023-08-30T11:28:04;19.10;99.90
48206;DHT22;33995;48.202;16.260;2023-08-30T11:30:39;19.30;99.90
48206;DHT22;33995;48.202;16.260;2023-08-30T11:33:06;19.30;99.90
48206;DHT22;33995;48.202;16.260;2023-08-30T11:35:33;19.30;99.90
48206;DHT22;33995;48.202;16.260;2023-08-30T11:38:03;19.20;99.90
48206;DHT22;33995;48.202;16.260;2023-08-30T11:40:32;19.00;99.90
48206;DHT22;33995;48.202;16.260;2023-08-30T11:43:02;18.90;99.90
48206;DHT22;33995;48.202;16.260;2023-08-30T11:45:39;18.90;99.90
48206;DHT22;33995;48.202;16.260;2023-08-30T11:48:06;19.10;99.90
48206;DHT22;33995;48.202;16.260;2023-08-30T11:50:35;19.20;99.90
48206;DHT22;33995;48.202;16.260;2023-08-30T11:53:15;19.30;99.90
48206;DHT22;33995;48.202;16.260;2023-08-30T11:55:47;19.40;99.90
48206;DHT22;33995;48.202;16.260;2023-08-30T11:58:14;19.40;99.90
48206;DHT22;33995;48.202;16.260;2023-08-30T12:00:41;19.30;99.90
48206;DHT22;33995;48.202;16.260;2023-08-30T12:03:12;19.40;99.90
48206;DHT22;33995;48.202;16.260;2023-08-30T12:05:47;19.60;99.90
48206;DHT22;33995;48.202;16.260;2023-08-30T12:08:23;20.10;99.90
48206;DHT22;33995;48.202;16.260;2023-08-30T12:11:05;20.50;99.90
48206;DHT22;33995;48.202;16.260;2023-08-30T12:13:37;20.80;99.90
48206;DHT22;33995;48.202;16.260;2023-08-30T12:16:05;20.80;99.90
48206;DHT22;33995;48.202;16.260;2023-08-30T12:18:34;20.70;99.90
48206;DHT22;33995;48.202;16.260;2023-08-30T12:21:02;20.50;99.90
48206;DHT22;33995;48.202;16.260;2023-08-30T12:23:31;20.50;99.90
48206;DHT22;33995;48.202;16.260;2023-08-30T12:26:09;20.50;99.90
48206;DHT22;33995;48.202;16.260;2023-08-30T12:28:38;20.70;99.90
48206;DHT22;33995;48.202;16.260;2023-08-30T12:31:06;20.80;99.90
48206;DHT22;33995;48.202;16.260;2023-08-30T12:33:34;20.70;99.90
48206;DHT22;33995;48.202;16.260;2023-08-30T12:36:04;20.60;99.90
48206;DHT22;33995;48.202;16.260;2023-08-30T12:38:36;20.30;99.90
48206;DHT22;33995;48.202;16.260;2023-08-30T12:41:03;20.20;99.90
48206;DHT22;33995;48.202;16.260;2023-08-30T12:43:32;20.10;99.90
48206;DHT22;33995;48.202;16.260;2023-08-30T12:45:59;20.00;99.90
48206;DHT22;33995;48.202;16.260;2023-08-30T12:48:28;20.00;99.90
48206;DHT22;33995;48.202;16.260;2023-08-30T12:50:55;19.90;99.90
48206;DHT22;33995;48.202;16.260;2023-08-30T12:53:23;19.90;99.90
48206;DHT22;33995;48.202;16.260;2023-08-30T12:55:54;19.70;99.90
48206;DHT22;33995;48.202;16.260;2023-08-30T12:58:25;19.60;99.90
48206;DHT22;33995;48.202;16.260;2023-08-30T13:00:55;19.50;99.90
48206;DHT22;33995;48.202;16.260;2023-08-30T13:03:22;19.50;99.90
48206;DHT22;33995;48.202;16.260;2023-08-30T13:05:50;19.40;99.90
48206;DHT22;33995;48.202;16.260;2023-08-30T13:08:17;19.30;99.90
48206;DHT22;33995;48.202;16.260;2023-08-30T13:10:47;19.30;99.90
48206;DHT22;33995;48.202;16.260;2023-08-30T13:13:15;19.30;99.90
48206;DHT22;33995;48.202;16.260;2023-08-30T13:15:46;19.20;99.90
48206;DHT22;33995;48.202;16.260;2023-08-30T13:18:14;19.20;99.90
48206;DHT22;33995;48.202;16.260;2023-08-30T13:20:45;19.20;99.90
48206;DHT22;33995;48.202;16.260;2023-08-30T13:23:14;19.20;99.90
48206;DHT22;33995;48.202;16.260;2023-08-30T13:25:47;19.20;99.90
48206;DHT22;33995;48.202;16.260;2023-08-30T13:28:15;19.10;99.90
48206;DHT22;33995;48.202;16.260;2023-08-30T13:30:47;19.20;99.90
48206;DHT22;33995;48.202;16.260;2023-08-30T13:33:17;19.10;99.90
48206;DHT22;33995;48.202;16.260;2023-08-30T13:35:49;19.00;99.90
48206;DHT22;33995;48.202;16.260;2023-08-30T13:38:20;19.00;99.90
48206;DHT22;33995;48.202;16.260;2023-08-30T13:40:51;19.00;99.90
48206;DHT22;33995;48.202;16.260;2023-08-30T13:43:26;18.90;99.90
48206;DHT22;33995;48.202;16.260;2023-08-30T13:45:58;18.90;99.90
48206;DHT22;33995;48.202;16.260;2023-08-30T13:48:29;18.90;99.90
48206;DHT22;33995;48.202;16.260;2023-08-30T13:50:58;18.80;99.90
48206;DHT22;33995;48.202;16.260;2023-08-30T13:53:29;18.80;99.90
48206;DHT22;33995;48.202;16.260;2023-08-30T13:55:59;18.90;99.90
48206;DHT22;33995;48.202;16.260;2023-08-30T13:58:28;18.90;99.90
48206;DHT22;33995;48.202;16.260;2023-08-30T14:00:58;19.00;99.90
48206;DHT22;33995;48.202;16.260;2023-08-30T14:03:31;19.00;99.90
48206;DHT22;33995;48.202;16.260;2023-08-30T14:06:03;19.10;99.90
48206;DHT22;33995;48.202;16.260;2023-08-30T14:08:34;19.10;99.90
48206;DHT22;33995;48.202;16.260;2023-08-30T14:11:06;19.10;99.90
48206;DHT22;33995;48.202;16.260;2023-08-30T14:13:39;19.00;99.90
48206;DHT22;33995;48.202;16.260;2023-08-30T14:16:10;18.90;99.90
48206;DHT22;33995;48.202;16.260;2023-08-30T14:18:43;18.80;99.90
48206;DHT22;33995;48.202;16.260;2023-08-30T14:21:11;18.60;99.90
48206;DHT22;33995;48.202;16.260;2023-08-30T14:23:44;18.60;99.90
48206;DHT22;33995;48.202;16.260;2023-08-30T14:26:14;18.50;99.90
48206;DHT22;33995;48.202;16.260;2023-08-30T14:28:44;18.50;99.90
48206;DHT22;33995;48.202;16.260;2023-08-30T14:31:17;18.60;99.90
48206;DHT22;33995;48.202;16.260;2023-08-30T14:33:45;18.60;99.90
48206;DHT22;33995;48.202;16.260;2023-08-30T14:36:16;18.60;99.90
48206;DHT22;33995;48.202;16.260;2023-08-30T14:38:47;18.60;99.90
48206;DHT22;33995;48.202;16.260;2023-08-30T14:41:17;18.70;99.90
48206;DHT22;33995;48.202;16.260;2023-08-30T14:43:47;18.80;99.90
48206;DHT22;33995;48.202;16.260;2023-08-30T14:46:18;18.90;99.90
48206;DHT22;33995;48.202;16.260;2023-08-30T14:48:51;19.00;99.90
48206;DHT22;33995;48.202;16.260;2023-08-30T14:51:21;19.00;99.90
48206;DHT22;33995;48.202;16.260;2023-08-30T14:53:50;19.10;99.90
48206;DHT22;33995;48.202;16.260;2023-08-30T14:56:18;19.20;99.90
48206;DHT22;33995;48.202;16.260;2023-08-30T14:58:48;19.30;99.90
48206;DHT22;33995;48.202;16.260;2023-08-30T15:01:24;19.30;99.90
48206;DHT22;33995;48.202;16.260;2023-08-30T15:03:56;19.30;99.90
48206;DHT22;33995;48.202;16.260;2023-08-30T15:06:26;19.40;99.90
48206;DHT22;33995;48.202;16.260;2023-08-30T15:08:54;19.40;99.90
48206;DHT22;33995;48.202;16.260;2023-08-30T15:11:25;19.40;99.90
48206;DHT22;33995;48.202;16.260;2023-08-30T15:13:54;19.30;99.90
48206;DHT22;33995;48.202;16.260;2023-08-30T15:16:23;19.30;99.90
48206;DHT22;33995;48.202;16.260;2023-08-30T15:18:54;19.40;99.90
48206;DHT22;33995;48.202;16.260;2023-08-30T15:21:26;19.50;99.90
48206;DHT22;33995;48.202;16.260;2023-08-30T15:23:58;19.50;99.90
48206;DHT22;33995;48.202;16.260;2023-08-30T15:26:27;19.40;99.90
48206;DHT22;33995;48.202;16.260;2023-08-30T15:28:58;19.30;99.90
48206;DHT22;33995;48.202;16.260;2023-08-30T15:31:28;19.20;99.90
48206;DHT22;33995;48.202;16.260;2023-08-30T15:34:02;19.20;99.90
48206;DHT22;33995;48.202;16.260;2023-08-30T15:36:38;19.10;99.90
48206;DHT22;33995;48.202;16.260;2023-08-30T15:39:08;19.10;99.90